Gasburg, Virginia
Current Conditions -  °F | °C
As of 12:15 PM on Friday 24 Oct 2014 (Local Time) from KAVC Reporting Station
Clear Clear  
Wind Chill: 68°   Ceiling: Unl
Heat Index: 68°   Visibility: 10mi
Dew Point: 41°   Wind: 0mph
Humidity: 37%   Direction: NA
Pressure: 30.07"   Gusts: NA
Location:  36.58°N, 77.88°W
Report Text: KAVC 241615Z AUTO 00000KT 10SM CLR 20/05 A3007 RMK AO2
Loading
Personal Weather Stations






























Interactive Weather Map New forecast layout! Learn more

10-Day Weather Forecast

Advertisements
Track Severe Weather on mobile